Ethiopian A359 at Johannesburg on Nov 6th 2021, hard landing, wing tip strike

Last Update: December 3, 2021 / 19:13:21 GMT/Zulu time

Bookmark this article
Incident Facts

Date of incident
Nov 6, 2021

Classification
Accident

Flight number
ET-809

Aircraft Registration
ET-AYB

Aircraft Type
Airbus A350-900

ICAO Type Designator
A359

Airport ICAO Code
FAOR

An Ethiopian Airlines Airbus A350-900, registration ET-AYB performing flight ET-809 from Addis Ababa (Ethiopia) to Johannesburg (South Africa) with 68 passengers and 12 crew, touched down hard on Johannesburg's runway 03R at 12:57L (10:57Z), rejected landing and climbed out about 10 degrees right off the runway heading. The aircraft climbed to 8000 feet MSL, subsequently positioned for an approach to runway 03L and landed without further incident about 20 minutes later.

The aircraft is still on the ground in Johannesburg 12 days later.

A local source told The Aviation Herald the aircraft suffered a hard landing and a runway excursion and went around.

According to ADS-B data transmitted by the aircraft the aircraft was descending at 500+ fpm at the time of touchdown, touched down about 120 meters/400 feet past the runway threshold (past the runway numbers but before the first touch down zone marker), changed 12 degrees to the right and climbed through 400 feet AGL about 460 meters/1500 feet to the right of the runway centerline overflying the hangars east of the runway.

On Nov 10th 2021 South Africa's CAA reported they were notified of an incident involving an Ethiopian A350-900 on Nov 6th 2021 and dispatched investigators on site to determine scope and size of the investigation. A preliminary report will be published within 30 days.

On Nov 18th 2021 The Aviation Herald received photos of the damage and current repairs (see below) verifying that the aircraft also received damage to its right wing tip as result of a wing tip strike.

Later on Nov 18th 2021 South Africa's CAA added that the aircraft encountered a strong crosswind while landing on runway 03R, the right hand wing tip made contact with the runway surface. The occurrence was rated an accident and is being investigated.

Ethiopian Airlines so far did not respond to an inquiry by The Aviation Herald sent on Nov 9th 2021.

On Dec 3rd 2021 South Africa's CAA (SACAA) released their preliminary report rating the occurrence an accident, the aircraft received substantial damage. The SACAA also reported that the CVR had not been deactivated following the accident and was overwritten.

The SACAA summarized the testimony of the captain:

The captain/pilot flying (PF) stated that upon his first contact with Johannesburg air traffic control (ATC), he was cleared for an OKPIT 4A standard instrument landing system (ILS) approach for Runway 03R. The weather from the Automatic Terminal Information Services (ATIS) that was broadcasted to the crew was — wind at a direction of 300° at 22 knots (kts), ceiling and visibility OK (CAVOK), temperature at 27°C, dew point at 11°C and query nautical height (QNH) at 1021 hectopascal (hPa). The PF stated that he had prepared for the arrival and had briefed the approach as per the company briefing checklist; he had anticipated a wind shear upon landing, therefore, added 5kts on the approach velocity (Vapp) of 137kts as per the operation manual for strong crosswind landings. The flaps were configured at 3°. The crew established for an ILS 03R approach and stabilised before 1000 feet (ft) above ground level (AGL). On final approach, ATC reported that the wind was from a direction of 300° at 22kts. At 30ft AGL, the PF flared with the adjusted crosswind landing technique by adding 5kts and retarded the thrust.

The PF attempted to touch down within the touchdown zone, but the aircraft could not touch down inside the touchdown zone. The PF concluded that they were in wind shear and decided to execute a go-around. During the initial stages of the go-around, the gusty wind over-banked the aircraft to the right. The ATC instructed the PF to maintain runway heading and to climb to 8000ft above mean sea level (AMSL) and vectored them for Runway 03L landing. The crew related to ATC that they had encountered wind shear on final approach. The PF was able to land safely on Runway 03L and, at 1126Z, the chocks were placed against the aircraft’s wheels at the parking bay. Thereafter, the crew disembarked and, during transit check, they noticed the damage on the right-side wing tip.

The aircraft left a scrape mark of about 110 meters length starting about 80 meters past the touch down zone on the runway. The captain (38, ATPL, 10,641 hours total, 1,738 hours on type) was pilot flying and was assisted by a first officer (29, CPL, 2,322 hours total, 983 hours on type) as pilot monitoring.

Metars:
FAOR 061300Z 32016G26KT 280V340 9999 SCT049 29/10 Q1019 NOSIG=
FAOR 061230Z 31015KT 9999 FEW045 29/10 Q1019 NOSIG=
FAOR 061200Z 32015KT 290V350 9999 FEW045 29/11 Q1020 NOSIG=
FAOR 061130Z 31017KT 280V340 9999 FEW045 29/10 Q1021 NOSIG=
FAOR 061100Z 32016KT 280V340 9999 FEW045 28/11 Q1021 NOSIG=
FAOR 061030Z 33016KT 300V360 CAVOK 28/10 Q1021 NOSIG=
FAOR 061000Z 34017KT CAVOK 27/11 Q1021 NOSIG=
FAOR 060930Z 32018KT CAVOK 27/11 Q1022 NOSIG=
FAOR 060900Z 32016KT CAVOK 27/11 Q1022 NOSIG=
FAOR 060830Z 34016KT 310V010 CAVOK 25/10 Q1023 NOSIG=
FAOR 060800Z 35017KT CAVOK 25/11 Q1023 NOSIG=
FAOR 060730Z 34017KT CAVOK 24/11 Q1023 NOSIG=
FAOR 060700Z 34016KT CAVOK 24/11 Q1023 NOSIG=
Incident Facts

Date of incident
Nov 6, 2021

Classification
Accident

Flight number
ET-809

Aircraft Registration
ET-AYB

Aircraft Type
Airbus A350-900

ICAO Type Designator
A359

Airport ICAO Code
FAOR

This article is published under license from Avherald.com. © of text by Avherald.com.
Article source

You can read 4 more free articles without a subscription.

Subscribe now and continue reading without any limits!

Are you a subscriber?
Login
Subscribe

Read unlimited articles and receive our daily update briefing. Gain better insights into what is happening in commercial aviation safety.

Free newsletter

Want to know more and stay ahead? Get our free weekly newsletter and join 4854 existing subscribers.

By subscribing, you accept our terms and conditions and confirm that you've read our privacy policy.

Send tip

Support AeroInside by sending a small tip amount.

Related articles

Newest articles

Subscribe today

Are you researching aviation incidents? Get access to AeroInside Insights, unlimited read access and receive the daily newsletter.

Pick your plan and subscribe

Partner

Blockaviation logo

A new way to document and demonstrate airworthiness compliance and aircraft value. Find out more.

Virtual Speech logo

Train yourself online in VR with the special course for aviation: "Crisis Communications: Airlines". Find out more.

Get updates

Never miss an article from AeroInside. Subscribe to our free weekly newsletter and join 4854 existing subscribers.

By subscribing, you accept our terms and conditions and that you've read our privacy policy.

AeroInside Blog
Popular aircraft
Airbus A320
Boeing 737-800
Boeing 737-800 MAX
Popular airlines
American Airlines
United
Delta
Air Canada
Lufthansa
British Airways